Norway, MI (49870)

12:23 AM CDT on Μάρτιος 31, 2015 (GMT -0500)
Downtown | | Change Station
CLOSE
Current Station
Personal Weather Stations
Location: Norway, MI
Elevation: 942 ft
Nearby Weather Stations

Elev 942 ft 45.79 °N, 87.91 °W | Updated 23 seconds ago

Νεφοσκεπής
Νεφοσκεπής
33.9 ° F
Feels Like 34 ° F
N
1.2
Ανεμος Μεταβλητός Ανεμος from ΒΑ
Gusts 0.0 mph

Σήμερα
High -- | Low -- ° F
--% Chance of Precip.
Yesterday
High -- | Low -- ° F
Precip. -- in
6:34 AM 7:18 PM
Αμφίκυρτος, 84% visible
Ατμοσφαιρική Πίεση 29.88 in
Ορατότητα 10.0 Μίλια
Σύννεφα Νεφοσκεπής 10000 ft
Δείκτης Ψυχρότητας 34 ° F
Σημείο Δρόσου 26 ° F
Υγρασία 72%
Rainfall 0.00 in
Snow Depth Not available.
Υπεριώδης ακτινοβολία (UV) 0 out of 12
Pollen 5.40 out of 12
Air Quality Not available.
Flu Activity Not available.
METAR KIMT 310454Z AUTO 00000KT 10SM OVC100 01/M04 A2984 RMK AO2 SLP116 T00061039 TSNO

More Conditions Fewer Conditions

Ατμοσφαιρική Πίεση 29.88 in
Ορατότητα 10.0 Μίλια
Σύννεφα Νεφοσκεπής 10000 ft
Δείκτης Ψυχρότητας 34 ° F
Σημείο Δρόσου 26 ° F
Υγρασία 72%
Rainfall 0.00 in
Snow Depth Not available.
Υπεριώδης ακτινοβολία (UV) 0 out of 12
Pollen 5.40 out of 12
Air Quality Not available.
Flu Activity Not available.
METAR KIMT 310454Z AUTO 00000KT 10SM OVC100 01/M04 A2984 RMK AO2 SLP116 T00061039 TSNO

More Conditions Fewer Conditions

10-Day Weather Forecast

Almanac

Αστρονομία

Mar. 31, 2015 Rise Set
Actual Time
Civil Twilight
Nautical Twilight
Astronomical Twilight
Moon
Length Of Visible Light
Διάρκεια ημέρας
Tomorrow will be .
, % of the Moon is Illuminated

Today's Extremes

State Highs State Lows

Community

WunderPhotos

Upload Photos

1,809,722 photos uploaded!

WunderBlogs® & News

Nearby

Air Quality

  Air Quality AQ Index Pollutant
Not available.

Snow Depth

Station Depth Elevation

Earthquake Activity

City Distance Mag. Time & Date
Minimum magnitude displayed is 2.5.

Coastal Water Temperatures

Τοποθεσία Θερμοκρασία

Stations

Nearby Weather Stations

Station Location Temp Δείκτης Ψυχρότητας Σημείο Δρόσου Υγρασία Ανεμος Precip. Elev Ενημερώθηκε Type